createdAt,value
2023-05-05T00:00:31.982Z,66.94
2023-05-05T00:03:05.138Z,66.63
2023-05-05T00:05:37.643Z,67.28
2023-05-05T00:08:10.688Z,67.24
2023-05-05T00:10:46.098Z,67.67
2023-05-05T00:13:19.008Z,67.77
2023-05-05T00:15:54.225Z,67.64
2023-05-05T00:18:27.221Z,67.35
2023-05-05T00:20:59.706Z,67.43
2023-05-05T00:23:32.904Z,67.67
2023-05-05T00:26:05.385Z,67.58
2023-05-05T00:28:38.270Z,67.96
2023-05-05T00:31:12.414Z,67.79
2023-05-05T00:33:45.580Z,67.79
2023-05-05T00:36:18.670Z,68.04
2023-05-05T00:38:51.771Z,68.10
2023-05-05T00:41:24.617Z,67.98
2023-05-05T00:43:57.724Z,67.52
2023-05-05T00:46:34.080Z,67.47
2023-05-05T00:49:07.492Z,67.65
2023-05-05T00:51:40.006Z,68.13
2023-05-05T00:54:13.432Z,67.46
2023-05-05T00:56:49.034Z,67.83
2023-05-05T00:59:22.181Z,67.08
2023-05-05T01:01:56.469Z,66.40
2023-05-05T01:04:29.713Z,67.21
2023-05-05T01:07:12.650Z,67.03
2023-05-05T01:10:04.218Z,68.04
2023-05-05T01:12:51.689Z,67.92
2023-05-05T01:15:33.784Z,68.48
2023-05-05T01:18:14.298Z,67.87
2023-05-05T01:20:53.930Z,68.81
2023-05-05T01:23:46.890Z,68.57
2023-05-05T01:26:44.018Z,67.94
2023-05-05T01:29:51.276Z,68.41
2023-05-05T01:32:28.989Z,68.83
2023-05-05T01:35:04.497Z,68.98
2023-05-05T01:37:45.337Z,68.35
2023-05-05T01:40:22.766Z,69.13
2023-05-05T01:42:56.801Z,69.18
2023-05-05T01:45:33.908Z,69.03
2023-05-05T01:48:09.686Z,69.08
2023-05-05T01:50:43.964Z,68.50
2023-05-05T01:53:19.517Z,69.66
2023-05-05T01:55:54.576Z,69.21
2023-05-05T01:58:29.766Z,69.29
2023-05-05T02:01:02.886Z,68.75
2023-05-05T02:03:39.505Z,68.69
2023-05-05T02:06:13.156Z,68.67
2023-05-05T02:08:47.660Z,68.12
2023-05-05T02:11:21.919Z,68.16
2023-05-05T02:13:56.175Z,68.14
2023-05-05T02:16:31.293Z,67.84
2023-05-05T02:19:06.446Z,69.21
2023-05-05T02:21:39.133Z,69.19
2023-05-05T02:24:12.680Z,68.55
2023-05-05T02:26:49.336Z,69.40
2023-05-05T02:29:29.387Z,69.73
2023-05-05T02:32:04.930Z,69.83
2023-05-05T02:34:41.666Z,70.08
2023-05-05T02:37:27.521Z,69.31
2023-05-05T02:40:06.337Z,69.48
2023-05-05T02:42:42.093Z,69.02
2023-05-05T02:45:20.222Z,69.64
2023-05-05T02:47:55.573Z,69.53
2023-05-05T02:50:31.066Z,70.03
2023-05-05T02:53:21.955Z,69.83
2023-05-05T02:55:57.540Z,68.87
2023-05-05T02:58:43.134Z,68.75
2023-05-05T03:01:29.542Z,69.11
2023-05-05T03:04:08.164Z,69.74
2023-05-05T03:06:51.285Z,69.13
2023-05-05T03:09:33.365Z,69.06
2023-05-05T03:12:10.760Z,69.89
2023-05-05T03:15:00.970Z,69.99
2023-05-05T03:17:37.341Z,69.69
2023-05-05T03:20:12.693Z,69.33
2023-05-05T03:22:50.861Z,68.63
2023-05-05T03:25:41.690Z,68.84
2023-05-05T03:28:15.772Z,69.45
2023-05-05T03:30:48.252Z,69.50
2023-05-05T03:33:23.396Z,69.81
2023-05-05T03:35:56.387Z,69.68
2023-05-05T03:38:30.717Z,69.06
2023-05-05T03:41:03.951Z,69.49
2023-05-05T03:43:39.489Z,69.49
2023-05-05T03:46:12.505Z,69.32
2023-05-05T03:48:46.617Z,69.47
2023-05-05T03:51:19.206Z,68.68
2023-05-05T03:53:53.930Z,69.02
2023-05-05T03:56:27.452Z,68.78
2023-05-05T03:59:00.438Z,68.73
2023-05-05T04:01:33.096Z,67.53
2023-05-05T04:04:06.135Z,67.93
2023-05-05T04:06:38.924Z,67.85
2023-05-05T04:09:14.226Z,68.03
2023-05-05T04:11:48.486Z,67.56
2023-05-05T04:14:21.540Z,67.75
2023-05-05T04:16:54.283Z,67.05
2023-05-05T04:19:26.840Z,67.30
2023-05-05T04:21:59.594Z,66.21
2023-05-05T04:24:33.933Z,66.31
2023-05-05T04:27:07.071Z,65.29
2023-05-05T04:29:40.737Z,65.68
2023-05-05T04:32:13.663Z,65.70
2023-05-05T04:34:46.949Z,65.02
2023-05-05T04:37:20.402Z,65.43
2023-05-05T04:39:54.281Z,64.63
2023-05-05T04:42:27.492Z,64.11
2023-05-05T04:45:00.645Z,63.92
2023-05-05T04:47:38.117Z,63.77
2023-05-05T04:50:11.642Z,63.30
2023-05-05T04:52:45.049Z,62.77
2023-05-05T04:55:19.068Z,63.31
2023-05-05T04:57:51.864Z,63.46
2023-05-05T05:00:24.738Z,63.43
2023-05-05T05:02:58.748Z,63.39
2023-05-05T05:05:31.422Z,62.92
2023-05-05T05:08:04.907Z,62.31
2023-05-05T05:10:38.711Z,61.73
2023-05-05T05:13:12.872Z,61.26
2023-05-05T05:15:46.028Z,61.30
2023-05-05T05:18:19.083Z,61.22
2023-05-05T05:20:52.211Z,61.61
2023-05-05T05:23:25.217Z,61.49
2023-05-05T05:25:59.401Z,60.86
2023-05-05T05:28:32.995Z,60.38
2023-05-05T05:31:08.532Z,60.24
2023-05-05T05:33:41.561Z,59.63
2023-05-05T05:36:14.629Z,59.62
2023-05-05T05:38:47.981Z,59.50
2023-05-05T05:41:22.488Z,59.58
2023-05-05T05:43:55.426Z,59.04
2023-05-05T05:46:28.767Z,58.82
2023-05-05T05:49:01.916Z,58.42
2023-05-05T05:51:35.235Z,58.06
2023-05-05T05:54:08.137Z,58.13
2023-05-05T05:56:42.390Z,57.49
2023-05-05T05:59:15.565Z,57.59
2023-05-05T06:01:48.570Z,57.35
2023-05-05T06:04:21.672Z,57.46
2023-05-05T06:06:54.842Z,57.11
2023-05-05T06:09:27.660Z,57.17
2023-05-05T06:12:04.277Z,57.26
2023-05-05T06:14:37.281Z,57.15
2023-05-05T06:17:10.989Z,57.05
2023-05-05T06:19:44.246Z,56.94
2023-05-05T06:22:16.827Z,56.76
2023-05-05T06:24:50.066Z,57.11
2023-05-05T06:27:25.282Z,56.91
2023-05-05T06:29:57.754Z,57.04
2023-05-05T06:32:31.001Z,56.82
2023-05-05T06:35:03.467Z,56.63
2023-05-05T06:37:36.126Z,56.58
2023-05-05T06:40:10.594Z,56.92
2023-05-05T06:42:44.894Z,56.60
2023-05-05T06:45:22.857Z,57.21
2023-05-05T06:47:56.033Z,56.80
2023-05-05T06:50:28.921Z,56.19
2023-05-05T06:53:02.193Z,56.06
2023-05-05T06:55:34.603Z,55.65
2023-05-05T06:58:08.999Z,56.07
2023-05-05T07:00:41.401Z,55.63
2023-05-05T07:03:14.507Z,55.97
2023-05-05T07:05:47.076Z,56.08
2023-05-05T07:08:20.310Z,55.35
2023-05-05T07:10:53.551Z,55.77
2023-05-05T07:13:27.442Z,55.87
2023-05-05T07:16:00.877Z,55.20
2023-05-05T07:18:33.728Z,55.47
2023-05-05T07:21:07.009Z,54.64
2023-05-05T07:23:41.043Z,54.33
2023-05-05T07:26:13.810Z,54.26
2023-05-05T07:28:48.236Z,54.21
2023-05-05T07:31:22.156Z,54.25
2023-05-05T07:33:54.538Z,54.37
2023-05-05T07:36:28.392Z,54.04
2023-05-05T07:39:00.839Z,54.02
2023-05-05T07:41:33.922Z,53.90
2023-05-05T07:44:07.825Z,53.66
2023-05-05T07:46:41.181Z,53.58
2023-05-05T07:49:13.714Z,53.54
2023-05-05T07:51:46.748Z,53.90
2023-05-05T07:54:19.567Z,53.90
2023-05-05T07:56:52.267Z,54.18
2023-05-05T07:59:26.035Z,54.16
2023-05-05T08:01:58.550Z,53.24
2023-05-05T08:04:31.312Z,53.60
2023-05-05T08:07:03.891Z,53.46
2023-05-05T08:09:36.924Z,52.58
2023-05-05T08:12:10.423Z,52.49
2023-05-05T08:14:44.251Z,52.31
2023-05-05T08:17:20.143Z,53.07
2023-05-05T08:19:53.535Z,52.54
2023-05-05T08:22:26.789Z,52.97
2023-05-05T08:24:59.891Z,52.82
2023-05-05T08:27:35.327Z,52.35
2023-05-05T08:30:11.369Z,53.32
2023-05-05T08:32:44.589Z,52.77
2023-05-05T08:35:17.107Z,52.81
2023-05-05T08:37:52.123Z,52.75
2023-05-05T08:40:36.653Z,52.56
2023-05-05T08:43:09.842Z,52.65
2023-05-05T08:45:44.747Z,52.49
2023-05-05T08:48:20.469Z,51.80
2023-05-05T08:50:59.934Z,52.07
2023-05-05T08:53:46.007Z,51.99
2023-05-05T08:56:19.845Z,51.86
2023-05-05T08:58:53.596Z,51.70
2023-05-05T09:01:27.740Z,52.12
2023-05-05T09:04:00.967Z,51.61
2023-05-05T09:06:34.674Z,51.72
2023-05-05T09:09:09.492Z,51.33
2023-05-05T09:11:43.125Z,51.53
2023-05-05T09:14:16.463Z,51.11
2023-05-05T09:16:50.772Z,50.99
2023-05-05T09:19:23.679Z,51.35
2023-05-05T09:21:56.169Z,51.59
2023-05-05T09:24:28.954Z,51.76
2023-05-05T09:27:01.834Z,50.64
2023-05-05T09:29:35.119Z,50.10
2023-05-05T09:32:09.218Z,50.34
2023-05-05T09:34:42.380Z,50.34
2023-05-05T09:37:27.737Z,50.49
2023-05-05T09:40:01.416Z,49.87
2023-05-05T09:42:37.933Z,49.82
2023-05-05T09:45:27.037Z,50.37
2023-05-05T09:48:01.336Z,50.19
2023-05-05T09:50:44.210Z,49.68
2023-05-05T09:53:16.834Z,50.07
2023-05-05T09:55:56.603Z,49.02
2023-05-05T09:58:31.169Z,49.13
2023-05-05T10:01:03.726Z,48.97
2023-05-05T10:03:52.363Z,48.73
2023-05-05T10:06:41.267Z,48.95
2023-05-05T10:09:15.149Z,49.22
2023-05-05T10:11:49.147Z,49.13
2023-05-05T10:14:24.346Z,48.47
2023-05-05T10:16:58.532Z,48.37
2023-05-05T10:19:35.915Z,49.09
2023-05-05T10:22:10.989Z,48.44
2023-05-05T10:24:51.054Z,48.07
2023-05-05T10:27:24.919Z,47.62
2023-05-05T10:30:03.622Z,48.01
2023-05-05T10:35:23.054Z,47.14
2023-05-05T10:37:57.879Z,47.34
2023-05-05T10:40:31.684Z,47.50
2023-05-05T10:43:05.538Z,46.71
2023-05-05T10:45:38.519Z,46.90
2023-05-05T10:48:19.010Z,46.93
2023-05-05T10:50:59.522Z,47.39
2023-05-05T10:53:41.822Z,46.12
2023-05-05T10:56:20.740Z,45.58
2023-05-05T10:59:00.013Z,45.52
2023-05-05T11:01:36.593Z,46.17
2023-05-05T11:04:23.737Z,46.48
2023-05-05T11:07:27.621Z,46.73
2023-05-05T11:10:01.767Z,46.42
2023-05-05T11:13:12.232Z,46.95
2023-05-05T11:15:45.068Z,46.40
2023-05-05T11:18:37.934Z,45.49
2023-05-05T11:21:18.267Z,44.39
2023-05-05T11:23:53.112Z,44.13
2023-05-05T11:26:53.782Z,44.55
2023-05-05T11:29:27.355Z,43.22
2023-05-05T11:32:13.030Z,43.28
2023-05-05T11:34:50.308Z,42.25
2023-05-05T11:37:24.471Z,41.76
2023-05-05T11:40:14.133Z,41.77
2023-05-05T11:42:46.610Z,41.70
2023-05-05T11:45:21.883Z,41.64
2023-05-05T11:48:28.534Z,42.15
2023-05-05T11:51:03.819Z,41.30
2023-05-05T11:53:36.868Z,40.66
2023-05-05T11:56:12.614Z,40.84
2023-05-05T11:58:45.373Z,40.37
2023-05-05T12:01:18.607Z,42.00
2023-05-05T12:03:51.302Z,41.50
2023-05-05T12:06:24.259Z,40.58
2023-05-05T12:08:57.409Z,40.71
2023-05-05T12:11:31.320Z,42.67
2023-05-05T12:14:09.554Z,41.48
2023-05-05T12:16:53.669Z,40.41
2023-05-05T12:19:30.662Z,39.96
2023-05-05T12:22:04.670Z,39.29
2023-05-05T12:24:37.668Z,39.98
2023-05-05T12:27:12.315Z,39.32
2023-05-05T12:29:45.431Z,39.48
2023-05-05T12:32:22.959Z,40.56
2023-05-05T12:35:00.314Z,40.69
2023-05-05T12:37:32.988Z,40.07
2023-05-05T12:40:09.228Z,40.75
2023-05-05T12:42:46.227Z,40.75
2023-05-05T12:45:18.909Z,42.16
2023-05-05T12:47:51.848Z,41.45
2023-05-05T12:50:32.175Z,42.89
2023-05-05T12:53:05.030Z,41.62
2023-05-05T12:55:37.891Z,42.29
2023-05-05T12:58:12.058Z,41.41
2023-05-05T13:00:45.264Z,40.89
2023-05-05T13:03:21.495Z,40.74
2023-05-05T13:05:54.432Z,39.46
2023-05-05T13:08:43.108Z,40.58
2023-05-05T13:11:16.075Z,38.92
2023-05-05T13:13:50.325Z,38.50
2023-05-05T13:16:23.092Z,38.39
2023-05-05T13:18:56.870Z,37.95
2023-05-05T13:21:30.001Z,37.06
2023-05-05T13:24:18.912Z,37.15
2023-05-05T13:26:54.461Z,38.02
2023-05-05T13:29:31.258Z,37.87
2023-05-05T13:32:05.352Z,39.46
2023-05-05T13:34:39.313Z,39.81
2023-05-05T13:37:12.520Z,40.55
2023-05-05T13:39:45.302Z,40.42
2023-05-05T13:42:18.156Z,40.70
2023-05-05T13:44:52.352Z,41.04
2023-05-05T13:47:25.234Z,41.33
2023-05-05T13:49:57.896Z,42.27
2023-05-05T13:52:32.107Z,40.61
2023-05-05T13:55:07.631Z,40.98
2023-05-05T13:57:40.899Z,40.25
2023-05-05T14:00:16.849Z,40.80
2023-05-05T14:02:50.002Z,40.88
2023-05-05T14:05:22.474Z,40.81
2023-05-05T14:07:56.102Z,41.02
2023-05-05T14:10:31.153Z,40.19
2023-05-05T14:13:03.785Z,40.17
2023-05-05T14:15:38.541Z,40.18
2023-05-05T14:18:11.425Z,39.02
2023-05-05T14:20:44.184Z,38.53
2023-05-05T14:23:17.096Z,39.49
2023-05-05T14:25:49.748Z,39.68
2023-05-05T14:28:22.912Z,39.53
2023-05-05T14:30:57.420Z,39.81
2023-05-05T14:33:30.032Z,39.80
2023-05-05T14:36:02.913Z,39.71
2023-05-05T14:38:35.424Z,38.39
2023-05-05T14:41:07.888Z,37.95
2023-05-05T14:43:41.128Z,38.40
2023-05-05T14:46:15.193Z,38.61
2023-05-05T14:48:48.549Z,39.38
2023-05-05T14:51:21.757Z,39.00
2023-05-05T14:53:54.470Z,39.31
2023-05-05T14:56:28.383Z,39.83
2023-05-05T14:59:01.118Z,39.62
2023-05-05T15:01:36.905Z,39.29
2023-05-05T15:04:09.916Z,39.42
2023-05-05T15:06:43.124Z,40.45
2023-05-05T15:09:18.163Z,40.54
2023-05-05T15:11:50.823Z,40.21
2023-05-05T15:14:23.592Z,40.27
2023-05-05T15:16:58.117Z,40.61
2023-05-05T15:19:31.101Z,40.22
2023-05-05T15:22:04.069Z,40.59
2023-05-05T15:24:37.348Z,40.73
2023-05-05T15:27:10.792Z,40.67
2023-05-05T15:29:43.434Z,40.72
2023-05-05T15:32:17.929Z,41.04
2023-05-05T15:34:50.714Z,40.55
2023-05-05T15:37:24.160Z,40.84
2023-05-05T15:39:57.087Z,40.66
2023-05-05T15:42:32.697Z,39.92
2023-05-05T15:45:08.237Z,40.11
2023-05-05T15:47:42.859Z,40.22
2023-05-05T15:50:16.103Z,40.08
2023-05-05T15:52:50.037Z,40.41
2023-05-05T15:55:24.821Z,39.98
2023-05-05T15:57:58.217Z,39.67
2023-05-05T16:00:31.875Z,39.71
2023-05-05T16:03:05.966Z,40.03
2023-05-05T16:05:38.960Z,39.64
2023-05-05T16:08:11.524Z,40.19
2023-05-05T16:10:44.447Z,40.13
2023-05-05T16:13:17.182Z,40.22
2023-05-05T16:15:50.658Z,41.14
2023-05-05T16:18:24.624Z,40.10
2023-05-05T16:20:57.684Z,40.43
2023-05-05T16:23:30.380Z,40.73
2023-05-05T16:26:04.665Z,40.29
2023-05-05T16:28:37.772Z,40.39
2023-05-05T16:31:11.302Z,40.58
2023-05-05T16:33:46.005Z,40.16
2023-05-05T16:36:18.821Z,40.08
2023-05-05T16:38:51.984Z,40.31
2023-05-05T16:41:26.037Z,40.53
2023-05-05T16:43:59.065Z,40.56
2023-05-05T16:46:32.025Z,40.20
2023-05-05T16:49:06.583Z,40.82
2023-05-05T16:51:39.313Z,41.37
2023-05-05T16:54:12.297Z,40.50
2023-05-05T16:56:45.510Z,40.61
2023-05-05T16:59:19.873Z,40.37
2023-05-05T17:01:52.383Z,40.41
2023-05-05T17:04:26.815Z,39.93
2023-05-05T17:06:59.372Z,40.51
2023-05-05T17:09:33.462Z,40.10
2023-05-05T17:12:06.616Z,40.24
2023-05-05T17:14:39.952Z,40.16
2023-05-05T17:17:13.017Z,40.05
2023-05-05T17:19:47.520Z,40.39
2023-05-05T17:22:20.382Z,40.05
2023-05-05T17:24:53.146Z,40.27
2023-05-05T17:27:25.678Z,40.02
2023-05-05T17:29:58.166Z,39.95
2023-05-05T17:32:30.969Z,39.74
2023-05-05T17:35:05.503Z,40.11
2023-05-05T17:37:38.677Z,40.38
2023-05-05T17:40:11.730Z,40.05
2023-05-05T17:42:44.282Z,40.23
2023-05-05T17:45:17.199Z,40.11
2023-05-05T17:47:50.200Z,39.99
2023-05-05T17:50:24.701Z,40.08
2023-05-05T17:52:57.565Z,40.18
2023-05-05T17:55:30.572Z,40.44
2023-05-05T17:58:04.539Z,40.23
2023-05-05T18:00:37.484Z,40.03
2023-05-05T18:03:10.343Z,40.25
2023-05-05T18:05:44.239Z,39.92
2023-05-05T18:08:17.761Z,40.07
2023-05-05T18:10:50.684Z,40.04
2023-05-05T18:13:23.521Z,40.38
2023-05-05T18:15:56.707Z,40.03
2023-05-05T18:18:29.630Z,39.44
2023-05-05T18:21:04.136Z,39.53
2023-05-05T18:23:36.808Z,39.54
2023-05-05T18:26:10.043Z,39.63
2023-05-05T18:28:42.752Z,39.81
2023-05-05T18:31:16.085Z,39.73
2023-05-05T18:33:48.606Z,39.89
2023-05-05T18:36:23.199Z,39.49
2023-05-05T18:38:56.478Z,39.81
2023-05-05T18:41:29.674Z,40.25
2023-05-05T18:44:02.113Z,40.37
2023-05-05T18:46:35.032Z,40.40
2023-05-05T18:49:08.492Z,40.51
2023-05-05T18:51:43.722Z,40.44
2023-05-05T18:54:16.811Z,41.28
2023-05-05T18:56:49.365Z,40.71
2023-05-05T18:59:22.469Z,40.22
2023-05-05T19:01:55.459Z,40.89
2023-05-05T19:04:31.644Z,40.75
2023-05-05T19:07:06.853Z,40.81
2023-05-05T19:09:40.012Z,40.41
2023-05-05T19:12:12.534Z,40.72
2023-05-05T19:14:45.684Z,40.60
2023-05-05T19:17:18.520Z,40.93
2023-05-05T19:19:51.709Z,40.55
2023-05-05T19:22:26.102Z,41.08
2023-05-05T19:24:59.051Z,41.51
2023-05-05T19:27:33.997Z,40.83
2023-05-05T19:30:08.854Z,40.86
2023-05-05T19:32:41.357Z,40.63
2023-05-05T19:35:14.270Z,41.29
2023-05-05T19:37:48.506Z,40.96
2023-05-05T19:40:21.937Z,41.62
2023-05-05T19:42:54.357Z,41.53
2023-05-05T19:45:26.978Z,41.62
2023-05-05T19:48:00.020Z,41.77
2023-05-05T19:50:33.219Z,41.54
2023-05-05T19:53:07.181Z,42.03
2023-05-05T19:55:40.462Z,41.83
2023-05-05T19:58:12.942Z,42.20
2023-05-05T20:00:45.671Z,43.19
2023-05-05T20:03:18.692Z,42.03
2023-05-05T20:05:51.689Z,42.01
2023-05-05T20:08:25.775Z,42.67
2023-05-05T20:10:58.940Z,42.12
2023-05-05T20:13:31.491Z,42.52
2023-05-05T20:16:05.036Z,42.49
2023-05-05T20:18:37.797Z,42.37
2023-05-05T20:21:11.088Z,42.46
2023-05-05T20:23:46.072Z,42.49
2023-05-05T20:26:19.146Z,43.19
2023-05-05T20:28:51.724Z,42.40
2023-05-05T20:31:24.977Z,42.41
2023-05-05T20:33:57.822Z,42.61
2023-05-05T20:36:30.741Z,42.72
2023-05-05T20:39:05.300Z,43.29
2023-05-05T20:41:40.817Z,42.57
2023-05-05T20:44:13.303Z,42.61
2023-05-05T20:46:46.608Z,43.39
2023-05-05T20:49:19.131Z,43.47
2023-05-05T20:51:52.018Z,43.67
2023-05-05T20:54:30.164Z,43.07
2023-05-05T20:57:21.558Z,42.94
2023-05-05T20:59:54.087Z,43.55
2023-05-05T21:02:27.224Z,42.72
2023-05-05T21:05:03.126Z,43.42
2023-05-05T21:07:39.085Z,42.43
2023-05-05T21:10:13.154Z,42.64
2023-05-05T21:12:46.588Z,42.63
2023-05-05T21:15:19.296Z,42.39
2023-05-05T21:17:52.667Z,42.88
2023-05-05T21:20:25.855Z,42.12
2023-05-05T21:22:58.642Z,41.92
2023-05-05T21:25:33.026Z,42.17
2023-05-05T21:28:05.912Z,43.03
2023-05-05T21:30:38.963Z,42.55
2023-05-05T21:33:12.132Z,42.40
2023-05-05T21:35:44.896Z,43.27
2023-05-05T21:38:17.997Z,42.30
2023-05-05T21:40:56.303Z,42.73
2023-05-05T21:43:29.129Z,42.68
2023-05-05T21:46:02.954Z,42.36
2023-05-05T21:48:39.209Z,43.27
2023-05-05T21:51:11.682Z,42.60
2023-05-05T21:53:44.591Z,43.28
2023-05-05T21:56:18.674Z,43.23
2023-05-05T21:58:51.863Z,43.23
2023-05-05T22:01:24.435Z,42.83
2023-05-05T22:03:57.883Z,42.99
2023-05-05T22:06:30.900Z,42.75
2023-05-05T22:09:04.070Z,43.22
2023-05-05T22:11:38.280Z,43.45
2023-05-05T22:14:30.032Z,43.46
2023-05-05T22:17:02.856Z,43.66
2023-05-05T22:19:36.273Z,43.08
2023-05-05T22:22:08.878Z,43.98
2023-05-05T22:24:42.014Z,44.37
2023-05-05T22:27:16.083Z,44.04
2023-05-05T22:29:49.216Z,44.34
2023-05-05T22:32:21.812Z,43.82
2023-05-05T22:34:56.085Z,44.71
2023-05-05T22:37:28.586Z,44.70
2023-05-05T22:40:02.048Z,44.39
2023-05-05T22:42:37.789Z,44.35
2023-05-05T22:45:11.766Z,44.93
2023-05-05T22:47:44.761Z,44.75
2023-05-05T22:50:18.166Z,44.83
2023-05-05T22:52:51.089Z,44.61
2023-05-05T22:55:25.072Z,45.39
2023-05-05T22:57:59.317Z,44.81
2023-05-05T23:00:32.384Z,44.77
2023-05-05T23:03:05.138Z,45.78
2023-05-05T23:05:38.406Z,44.79
2023-05-05T23:08:11.357Z,45.50
2023-05-05T23:10:44.448Z,45.68
2023-05-05T23:13:18.388Z,45.88
2023-05-05T23:15:51.540Z,45.58
2023-05-05T23:18:24.109Z,46.14
2023-05-05T23:20:57.219Z,46.29
2023-05-05T23:23:30.769Z,46.43
2023-05-05T23:26:03.832Z,45.52
2023-05-05T23:28:38.137Z,46.09
2023-05-05T23:31:10.616Z,46.23
2023-05-05T23:33:43.125Z,46.60
2023-05-05T23:36:15.867Z,46.85
2023-05-05T23:38:48.971Z,46.93
2023-05-05T23:41:21.377Z,45.97
2023-05-05T23:43:55.866Z,46.21
2023-05-05T23:46:28.769Z,46.28
2023-05-05T23:49:01.342Z,47.07
2023-05-05T23:51:34.533Z,46.80
2023-05-05T23:54:07.839Z,46.29
2023-05-05T23:56:41.278Z,46.94
2023-05-05T23:59:15.510Z,47.39
